sensor_id;sensor_type;location;lat;lon;timestamp;temperature;humidity
10352;DHT22;5222;49.324;8.420;2022-09-17T00:01:27;15.50;99.10
10352;DHT22;5222;49.324;8.420;2022-09-17T00:03:56;15.50;99.10
10352;DHT22;5222;49.324;8.420;2022-09-17T00:06:25;15.50;99.10
10352;DHT22;5222;49.324;8.420;2022-09-17T00:08:52;15.50;99.10
10352;DHT22;5222;49.324;8.420;2022-09-17T00:11:22;15.50;99.10
10352;DHT22;5222;49.324;8.420;2022-09-17T00:13:50;15.50;99.10
10352;DHT22;5222;49.324;8.420;2022-09-17T00:16:25;15.50;99.10
10352;DHT22;5222;49.324;8.420;2022-09-17T00:18:52;15.50;99.10
10352;DHT22;5222;49.324;8.420;2022-09-17T00:21:19;15.40;99.10
10352;DHT22;5222;49.324;8.420;2022-09-17T00:23:46;15.30;99.10
10352;DHT22;5222;49.324;8.420;2022-09-17T00:26:14;15.20;99.10
10352;DHT22;5222;49.324;8.420;2022-09-17T00:28:41;15.10;99.10
10352;DHT22;5222;49.324;8.420;2022-09-17T00:31:10;15.20;99.10
10352;DHT22;5222;49.324;8.420;2022-09-17T00:33:38;15.00;99.10
10352;DHT22;5222;49.324;8.420;2022-09-17T00:36:05;14.90;99.10
10352;DHT22;5222;49.324;8.420;2022-09-17T00:38:32;14.80;99.10
10352;DHT22;5222;49.324;8.420;2022-09-17T00:40:58;14.80;99.10
10352;DHT22;5222;49.324;8.420;2022-09-17T00:43:38;14.90;99.10
10352;DHT22;5222;49.324;8.420;2022-09-17T00:46:14;14.90;99.10
10352;DHT22;5222;49.324;8.420;2022-09-17T00:48:46;14.80;99.10
10352;DHT22;5222;49.324;8.420;2022-09-17T00:51:16;14.90;99.10
10352;DHT22;5222;49.324;8.420;2022-09-17T00:53:43;14.90;99.10
10352;DHT22;5222;49.324;8.420;2022-09-17T00:56:16;14.90;99.10
10352;DHT22;5222;49.324;8.420;2022-09-17T00:58:45;14.90;99.10
10352;DHT22;5222;49.324;8.420;2022-09-17T01:01:13;14.80;99.10
10352;DHT22;5222;49.324;8.420;2022-09-17T01:03:40;14.80;99.10
10352;DHT22;5222;49.324;8.420;2022-09-17T01:06:15;14.90;99.10
10352;DHT22;5222;49.324;8.420;2022-09-17T01:08:58;14.80;99.10
10352;DHT22;5222;49.324;8.420;2022-09-17T01:11:51;14.80;99.10
10352;DHT22;5222;49.324;8.420;2022-09-17T01:14:37;14.70;99.10
10352;DHT22;5222;49.324;8.420;2022-09-17T01:17:13;14.70;99.10
10352;DHT22;5222;49.324;8.420;2022-09-17T01:20:05;14.80;99.10
10352;DHT22;5222;49.324;8.420;2022-09-17T01:22:41;14.70;99.10
10352;DHT22;5222;49.324;8.420;2022-09-17T01:25:20;14.60;99.10
10352;DHT22;5222;49.324;8.420;2022-09-17T01:28:24;14.50;99.10
10352;DHT22;5222;49.324;8.420;2022-09-17T01:31:22;14.50;99.10
10352;DHT22;5222;49.324;8.420;2022-09-17T01:33:58;14.40;99.10
10352;DHT22;5222;49.324;8.420;2022-09-17T01:36:44;14.30;99.10
10352;DHT22;5222;49.324;8.420;2022-09-17T01:39:19;14.30;99.10
10352;DHT22;5222;49.324;8.420;2022-09-17T01:41:52;14.20;99.10
10352;DHT22;5222;49.324;8.420;2022-09-17T01:44:25;14.10;99.10
10352;DHT22;5222;49.324;8.420;2022-09-17T01:46:56;14.10;99.10
10352;DHT22;5222;49.324;8.420;2022-09-17T01:49:28;14.10;99.10
10352;DHT22;5222;49.324;8.420;2022-09-17T01:51:56;14.10;99.10
10352;DHT22;5222;49.324;8.420;2022-09-17T01:54:26;14.10;99.10
10352;DHT22;5222;49.324;8.420;2022-09-17T01:56:57;14.10;99.10
10352;DHT22;5222;49.324;8.420;2022-09-17T01:59:29;14.20;99.10
10352;DHT22;5222;49.324;8.420;2022-09-17T02:02:04;14.20;99.10
10352;DHT22;5222;49.324;8.420;2022-09-17T02:04:35;14.10;99.10
10352;DHT22;5222;49.324;8.420;2022-09-17T02:07:07;14.10;99.10
10352;DHT22;5222;49.324;8.420;2022-09-17T02:09:41;14.10;99.10
10352;DHT22;5222;49.324;8.420;2022-09-17T02:12:11;14.10;99.10
10352;DHT22;5222;49.324;8.420;2022-09-17T02:14:44;14.00;99.10
10352;DHT22;5222;49.324;8.420;2022-09-17T02:17:19;14.00;99.10
10352;DHT22;5222;49.324;8.420;2022-09-17T02:19:47;14.10;99.10
10352;DHT22;5222;49.324;8.420;2022-09-17T02:22:20;14.10;99.10
10352;DHT22;5222;49.324;8.420;2022-09-17T02:24:55;14.10;99.10
10352;DHT22;5222;49.324;8.420;2022-09-17T02:27:36;14.00;99.10
10352;DHT22;5222;49.324;8.420;2022-09-17T02:30:04;14.00;99.10
10352;DHT22;5222;49.324;8.420;2022-09-17T02:32:33;13.90;99.10
10352;DHT22;5222;49.324;8.420;2022-09-17T02:34:59;13.80;99.10
10352;DHT22;5222;49.324;8.420;2022-09-17T02:37:26;13.70;99.10
10352;DHT22;5222;49.324;8.420;2022-09-17T02:39:53;13.70;99.10
10352;DHT22;5222;49.324;8.420;2022-09-17T02:42:23;13.60;99.10
10352;DHT22;5222;49.324;8.420;2022-09-17T02:45:01;13.70;99.10
10352;DHT22;5222;49.324;8.420;2022-09-17T02:47:51;13.60;99.10
10352;DHT22;5222;49.324;8.420;2022-09-17T02:50:45;13.50;99.10
10352;DHT22;5222;49.324;8.420;2022-09-17T02:53:30;13.50;99.10
10352;DHT22;5222;49.324;8.420;2022-09-17T02:56:08;13.50;99.10
10352;DHT22;5222;49.324;8.420;2022-09-17T02:58:44;13.50;99.10
10352;DHT22;5222;49.324;8.420;2022-09-17T03:01:18;13.40;99.10
10352;DHT22;5222;49.324;8.420;2022-09-17T03:03:48;13.50;99.10
10352;DHT22;5222;49.324;8.420;2022-09-17T03:06:16;13.50;99.10
10352;DHT22;5222;49.324;8.420;2022-09-17T03:08:45;13.50;99.10
10352;DHT22;5222;49.324;8.420;2022-09-17T03:11:12;13.50;99.10
10352;DHT22;5222;49.324;8.420;2022-09-17T03:13:39;13.50;99.10
10352;DHT22;5222;49.324;8.420;2022-09-17T03:16:06;13.50;99.10
10352;DHT22;5222;49.324;8.420;2022-09-17T03:18:33;13.40;99.10
10352;DHT22;5222;49.324;8.420;2022-09-17T03:21:01;13.40;99.10
10352;DHT22;5222;49.324;8.420;2022-09-17T03:23:28;13.50;99.10
10352;DHT22;5222;49.324;8.420;2022-09-17T03:25:55;13.50;99.10
10352;DHT22;5222;49.324;8.420;2022-09-17T03:28:21;13.50;99.10
10352;DHT22;5222;49.324;8.420;2022-09-17T03:30:49;13.50;99.10
10352;DHT22;5222;49.324;8.420;2022-09-17T03:33:16;13.50;99.10
10352;DHT22;5222;49.324;8.420;2022-09-17T03:35:44;13.40;99.10
10352;DHT22;5222;49.324;8.420;2022-09-17T03:38:13;13.30;99.10
10352;DHT22;5222;49.324;8.420;2022-09-17T03:40:39;13.30;99.10
10352;DHT22;5222;49.324;8.420;2022-09-17T03:43:07;13.30;99.10
10352;DHT22;5222;49.324;8.420;2022-09-17T03:45:33;13.40;99.10
10352;DHT22;5222;49.324;8.420;2022-09-17T03:48:00;13.30;99.10
10352;DHT22;5222;49.324;8.420;2022-09-17T03:50:27;13.30;99.10
10352;DHT22;5222;49.324;8.420;2022-09-17T03:52:54;13.10;99.10
10352;DHT22;5222;49.324;8.420;2022-09-17T03:55:22;13.20;99.10
10352;DHT22;5222;49.324;8.420;2022-09-17T03:57:49;13.20;99.10
10352;DHT22;5222;49.324;8.420;2022-09-17T04:00:16;13.30;99.10
10352;DHT22;5222;49.324;8.420;2022-09-17T04:02:43;13.30;99.10
10352;DHT22;5222;49.324;8.420;2022-09-17T04:05:10;13.30;99.10
10352;DHT22;5222;49.324;8.420;2022-09-17T04:07:38;13.30;99.10
10352;DHT22;5222;49.324;8.420;2022-09-17T04:10:06;13.30;99.10
10352;DHT22;5222;49.324;8.420;2022-09-17T04:12:34;13.30;99.10
10352;DHT22;5222;49.324;8.420;2022-09-17T04:15:00;13.40;99.10
10352;DHT22;5222;49.324;8.420;2022-09-17T04:17:27;13.40;99.10
10352;DHT22;5222;49.324;8.420;2022-09-17T04:19:54;13.40;99.10
10352;DHT22;5222;49.324;8.420;2022-09-17T04:22:20;13.40;99.10
10352;DHT22;5222;49.324;8.420;2022-09-17T04:24:47;13.50;99.10
10352;DHT22;5222;49.324;8.420;2022-09-17T04:27:14;13.50;99.10
10352;DHT22;5222;49.324;8.420;2022-09-17T04:29:42;13.50;99.10
10352;DHT22;5222;49.324;8.420;2022-09-17T04:32:09;13.50;99.10
10352;DHT22;5222;49.324;8.420;2022-09-17T04:34:35;13.60;99.10
10352;DHT22;5222;49.324;8.420;2022-09-17T04:37:02;13.60;99.10
10352;DHT22;5222;49.324;8.420;2022-09-17T04:39:29;13.70;99.10
10352;DHT22;5222;49.324;8.420;2022-09-17T04:41:56;13.60;99.10
10352;DHT22;5222;49.324;8.420;2022-09-17T04:44:22;13.60;99.10
10352;DHT22;5222;49.324;8.420;2022-09-17T04:46:51;13.40;99.10
10352;DHT22;5222;49.324;8.420;2022-09-17T04:49:17;13.50;99.10
10352;DHT22;5222;49.324;8.420;2022-09-17T04:51:44;13.50;99.10
10352;DHT22;5222;49.324;8.420;2022-09-17T04:54:11;13.60;99.10
10352;DHT22;5222;49.324;8.420;2022-09-17T04:56:39;13.70;99.10
10352;DHT22;5222;49.324;8.420;2022-09-17T04:59:05;13.60;99.10
10352;DHT22;5222;49.324;8.420;2022-09-17T05:01:32;13.70;99.10
10352;DHT22;5222;49.324;8.420;2022-09-17T05:04:00;13.80;99.10
10352;DHT22;5222;49.324;8.420;2022-09-17T05:06:27;13.90;99.10
10352;DHT22;5222;49.324;8.420;2022-09-17T05:08:54;13.90;99.10
10352;DHT22;5222;49.324;8.420;2022-09-17T05:11:21;13.90;99.10
10352;DHT22;5222;49.324;8.420;2022-09-17T05:13:48;13.80;99.10
10352;DHT22;5222;49.324;8.420;2022-09-17T05:16:15;13.90;99.10
10352;DHT22;5222;49.324;8.420;2022-09-17T05:18:42;13.90;99.10
10352;DHT22;5222;49.324;8.420;2022-09-17T05:21:10;14.00;99.10
10352;DHT22;5222;49.324;8.420;2022-09-17T05:23:36;14.10;99.10
10352;DHT22;5222;49.324;8.420;2022-09-17T05:26:03;14.10;99.10
10352;DHT22;5222;49.324;8.420;2022-09-17T05:28:30;14.10;99.10
10352;DHT22;5222;49.324;8.420;2022-09-17T05:30:58;14.00;99.10
10352;DHT22;5222;49.324;8.420;2022-09-17T05:33:25;13.90;99.10
10352;DHT22;5222;49.324;8.420;2022-09-17T05:35:52;13.90;99.10
10352;DHT22;5222;49.324;8.420;2022-09-17T05:38:20;13.90;99.10
10352;DHT22;5222;49.324;8.420;2022-09-17T05:40:47;14.00;99.10
10352;DHT22;5222;49.324;8.420;2022-09-17T05:43:14;14.10;99.10
10352;DHT22;5222;49.324;8.420;2022-09-17T05:45:41;14.10;99.10
10352;DHT22;5222;49.324;8.420;2022-09-17T05:48:10;14.10;99.10
10352;DHT22;5222;49.324;8.420;2022-09-17T05:50:37;14.10;99.10
10352;DHT22;5222;49.324;8.420;2022-09-17T05:53:05;14.20;99.10
10352;DHT22;5222;49.324;8.420;2022-09-17T05:55:34;14.10;99.10
10352;DHT22;5222;49.324;8.420;2022-09-17T05:58:07;14.10;99.10
10352;DHT22;5222;49.324;8.420;2022-09-17T06:00:34;14.20;99.10
10352;DHT22;5222;49.324;8.420;2022-09-17T06:03:01;14.30;99.10
10352;DHT22;5222;49.324;8.420;2022-09-17T06:05:28;14.30;99.10
10352;DHT22;5222;49.324;8.420;2022-09-17T06:07:54;14.40;99.10
10352;DHT22;5222;49.324;8.420;2022-09-17T06:10:21;14.30;99.10
10352;DHT22;5222;49.324;8.420;2022-09-17T06:12:54;14.40;99.10
10352;DHT22;5222;49.324;8.420;2022-09-17T06:15:21;14.30;99.10
10352;DHT22;5222;49.324;8.420;2022-09-17T06:17:48;14.40;99.10
10352;DHT22;5222;49.324;8.420;2022-09-17T06:20:15;14.50;99.10
10352;DHT22;5222;49.324;8.420;2022-09-17T06:22:42;14.50;99.10
10352;DHT22;5222;49.324;8.420;2022-09-17T06:25:08;14.40;99.10
10352;DHT22;5222;49.324;8.420;2022-09-17T06:27:35;14.50;99.10
10352;DHT22;5222;49.324;8.420;2022-09-17T06:30:04;14.50;99.10
10352;DHT22;5222;49.324;8.420;2022-09-17T06:32:32;14.60;99.10
10352;DHT22;5222;49.324;8.420;2022-09-17T06:34:58;14.70;99.10
10352;DHT22;5222;49.324;8.420;2022-09-17T06:37:27;14.80;99.10
10352;DHT22;5222;49.324;8.420;2022-09-17T06:39:54;14.80;99.10
10352;DHT22;5222;49.324;8.420;2022-09-17T06:42:21;14.80;99.10
10352;DHT22;5222;49.324;8.420;2022-09-17T06:44:48;14.80;99.10
10352;DHT22;5222;49.324;8.420;2022-09-17T06:47:16;14.80;99.10
10352;DHT22;5222;49.324;8.420;2022-09-17T06:49:43;14.90;99.10
10352;DHT22;5222;49.324;8.420;2022-09-17T06:52:10;15.00;99.10
10352;DHT22;5222;49.324;8.420;2022-09-17T06:54:36;15.10;99.10
10352;DHT22;5222;49.324;8.420;2022-09-17T06:57:04;15.20;99.10
10352;DHT22;5222;49.324;8.420;2022-09-17T06:59:31;15.40;99.10
10352;DHT22;5222;49.324;8.420;2022-09-17T07:01:58;15.30;99.10
10352;DHT22;5222;49.324;8.420;2022-09-17T07:04:26;15.50;99.10
10352;DHT22;5222;49.324;8.420;2022-09-17T07:06:52;15.70;99.10
10352;DHT22;5222;49.324;8.420;2022-09-17T07:09:19;16.00;99.10
10352;DHT22;5222;49.324;8.420;2022-09-17T07:11:46;16.40;99.10
10352;DHT22;5222;49.324;8.420;2022-09-17T07:14:13;16.30;99.10
10352;DHT22;5222;49.324;8.420;2022-09-17T07:16:39;16.40;99.10
10352;DHT22;5222;49.324;8.420;2022-09-17T07:19:06;16.40;99.10
10352;DHT22;5222;49.324;8.420;2022-09-17T07:21:34;16.50;99.10
10352;DHT22;5222;49.324;8.420;2022-09-17T07:24:02;16.60;99.10
10352;DHT22;5222;49.324;8.420;2022-09-17T07:26:29;16.70;99.10
10352;DHT22;5222;49.324;8.420;2022-09-17T07:28:55;16.70;99.10
10352;DHT22;5222;49.324;8.420;2022-09-17T07:31:22;16.80;99.10
10352;DHT22;5222;49.324;8.420;2022-09-17T07:33:49;16.90;99.10
10352;DHT22;5222;49.324;8.420;2022-09-17T07:36:16;17.10;99.10
10352;DHT22;5222;49.324;8.420;2022-09-17T07:38:44;17.20;98.20
10352;DHT22;5222;49.324;8.420;2022-09-17T07:41:12;17.30;98.20
10352;DHT22;5222;49.324;8.420;2022-09-17T07:43:40;17.30;98.10
10352;DHT22;5222;49.324;8.420;2022-09-17T07:46:12;17.20;98.20
10352;DHT22;5222;49.324;8.420;2022-09-17T07:48:39;17.40;98.10
10352;DHT22;5222;49.324;8.420;2022-09-17T07:51:06;17.70;97.50
10352;DHT22;5222;49.324;8.420;2022-09-17T07:53:33;18.00;96.60
10352;DHT22;5222;49.324;8.420;2022-09-17T07:56:01;18.50;95.70
10352;DHT22;5222;49.324;8.420;2022-09-17T07:58:29;18.70;94.70
10352;DHT22;5222;49.324;8.420;2022-09-17T08:01:01;18.90;94.40
10352;DHT22;5222;49.324;8.420;2022-09-17T08:03:28;19.20;94.00
10352;DHT22;5222;49.324;8.420;2022-09-17T08:06:00;19.60;93.10
10352;DHT22;5222;49.324;8.420;2022-09-17T08:08:29;19.90;92.40
10352;DHT22;5222;49.324;8.420;2022-09-17T08:11:00;19.60;91.00
10352;DHT22;5222;49.324;8.420;2022-09-17T08:13:27;19.00;92.70
10352;DHT22;5222;49.324;8.420;2022-09-17T08:15:57;18.90;94.10
10352;DHT22;5222;49.324;8.420;2022-09-17T08:18:25;18.90;93.00
10352;DHT22;5222;49.324;8.420;2022-09-17T08:20:55;19.00;92.70
10352;DHT22;5222;49.324;8.420;2022-09-17T08:23:21;19.10;93.20
10352;DHT22;5222;49.324;8.420;2022-09-17T08:25:51;19.00;92.90
10352;DHT22;5222;49.324;8.420;2022-09-17T08:28:20;19.30;92.00
10352;DHT22;5222;49.324;8.420;2022-09-17T08:30:47;19.40;92.50
10352;DHT22;5222;49.324;8.420;2022-09-17T08:33:18;19.40;93.00
10352;DHT22;5222;49.324;8.420;2022-09-17T08:35:50;19.30;92.10
10352;DHT22;5222;49.324;8.420;2022-09-17T08:38:17;19.60;91.40
10352;DHT22;5222;49.324;8.420;2022-09-17T08:40:53;19.80;92.10
10352;DHT22;5222;49.324;8.420;2022-09-17T08:43:24;20.00;91.60
10352;DHT22;5222;49.324;8.420;2022-09-17T08:45:53;20.50;89.50
10352;DHT22;5222;49.324;8.420;2022-09-17T08:48:21;20.80;88.00
10352;DHT22;5222;49.324;8.420;2022-09-17T08:50:49;20.70;87.90
10352;DHT22;5222;49.324;8.420;2022-09-17T08:53:33;20.70;89.10
10352;DHT22;5222;49.324;8.420;2022-09-17T08:56:09;20.10;89.00
10352;DHT22;5222;49.324;8.420;2022-09-17T08:58:57;19.70;89.50
10352;DHT22;5222;49.324;8.420;2022-09-17T09:01:33;19.80;90.10
10352;DHT22;5222;49.324;8.420;2022-09-17T09:04:24;20.10;89.40
10352;DHT22;5222;49.324;8.420;2022-09-17T09:07:00;19.60;89.60
10352;DHT22;5222;49.324;8.420;2022-09-17T09:09:29;19.20;90.40
10352;DHT22;5222;49.324;8.420;2022-09-17T09:12:01;19.10;90.00
10352;DHT22;5222;49.324;8.420;2022-09-17T09:14:31;19.40;90.10
10352;DHT22;5222;49.324;8.420;2022-09-17T09:17:04;19.80;89.40
10352;DHT22;5222;49.324;8.420;2022-09-17T09:19:40;20.00;89.00
10352;DHT22;5222;49.324;8.420;2022-09-17T09:22:27;20.50;88.60
10352;DHT22;5222;49.324;8.420;2022-09-17T09:25:05;20.60;86.70
10352;DHT22;5222;49.324;8.420;2022-09-17T09:27:39;20.80;87.20
10352;DHT22;5222;49.324;8.420;2022-09-17T09:30:12;20.70;87.30
10352;DHT22;5222;49.324;8.420;2022-09-17T09:32:49;20.60;87.30
10352;DHT22;5222;49.324;8.420;2022-09-17T09:35:18;20.70;88.10
10352;DHT22;5222;49.324;8.420;2022-09-17T09:37:52;20.60;87.30
10352;DHT22;5222;49.324;8.420;2022-09-17T09:40:35;20.30;86.80
10352;DHT22;5222;49.324;8.420;2022-09-17T09:43:10;20.00;88.10
10352;DHT22;5222;49.324;8.420;2022-09-17T09:45:50;19.70;89.10
10352;DHT22;5222;49.324;8.420;2022-09-17T09:48:28;19.80;89.70
10352;DHT22;5222;49.324;8.420;2022-09-17T09:51:08;19.90;89.60
10352;DHT22;5222;49.324;8.420;2022-09-17T09:53:49;20.50;87.20
10352;DHT22;5222;49.324;8.420;2022-09-17T09:56:40;20.80;86.10
10352;DHT22;5222;49.324;8.420;2022-09-17T09:59:11;21.10;85.10
10352;DHT22;5222;49.324;8.420;2022-09-17T10:01:41;21.40;82.60
10352;DHT22;5222;49.324;8.420;2022-09-17T10:04:20;21.60;83.40
10352;DHT22;5222;49.324;8.420;2022-09-17T10:06:48;21.80;82.30
10352;DHT22;5222;49.324;8.420;2022-09-17T10:09:18;21.50;82.10
10352;DHT22;5222;49.324;8.420;2022-09-17T10:12:02;21.30;82.70
10352;DHT22;5222;49.324;8.420;2022-09-17T10:14:31;21.00;83.50
10352;DHT22;5222;49.324;8.420;2022-09-17T10:17:20;20.70;84.40
10352;DHT22;5222;49.324;8.420;2022-09-17T10:20:12;20.70;86.10
10352;DHT22;5222;49.324;8.420;2022-09-17T10:22:41;20.20;84.50
10352;DHT22;5222;49.324;8.420;2022-09-17T10:25:29;20.00;85.60
10352;DHT22;5222;49.324;8.420;2022-09-17T10:27:58;20.50;86.10
10352;DHT22;5222;49.324;8.420;2022-09-17T10:30:26;20.50;85.20
10352;DHT22;5222;49.324;8.420;2022-09-17T10:33:20;20.90;85.30
10352;DHT22;5222;49.324;8.420;2022-09-17T10:36:00;20.80;85.20
10352;DHT22;5222;49.324;8.420;2022-09-17T10:38:30;20.70;84.00
10352;DHT22;5222;49.324;8.420;2022-09-17T10:41:12;20.70;84.60
10352;DHT22;5222;49.324;8.420;2022-09-17T10:43:39;20.90;84.60
10352;DHT22;5222;49.324;8.420;2022-09-17T10:46:09;20.90;84.00
10352;DHT22;5222;49.324;8.420;2022-09-17T10:48:42;20.70;83.10
10352;DHT22;5222;49.324;8.420;2022-09-17T10:51:10;20.90;83.30
10352;DHT22;5222;49.324;8.420;2022-09-17T10:54:12;21.10;83.70
10352;DHT22;5222;49.324;8.420;2022-09-17T10:56:45;20.80;83.20
10352;DHT22;5222;49.324;8.420;2022-09-17T10:59:32;20.70;82.60
10352;DHT22;5222;49.324;8.420;2022-09-17T11:02:19;20.60;82.90
10352;DHT22;5222;49.324;8.420;2022-09-17T11:04:56;20.60;82.10
10352;DHT22;5222;49.324;8.420;2022-09-17T11:07:41;20.30;83.60
10352;DHT22;5222;49.324;8.420;2022-09-17T11:10:13;19.80;86.80
10352;DHT22;5222;49.324;8.420;2022-09-17T11:12:55;19.40;88.70
10352;DHT22;5222;49.324;8.420;2022-09-17T11:15:34;19.30;89.20
10352;DHT22;5222;49.324;8.420;2022-09-17T11:18:38;19.30;89.30
10352;DHT22;5222;49.324;8.420;2022-09-17T11:21:24;19.50;89.20
10352;DHT22;5222;49.324;8.420;2022-09-17T11:26:59;20.30;88.50
10352;DHT22;5222;49.324;8.420;2022-09-17T11:29:59;20.50;86.40
10352;DHT22;5222;49.324;8.420;2022-09-17T11:33:13;20.50;84.60
10352;DHT22;5222;49.324;8.420;2022-09-17T11:35:46;20.40;84.70
10352;DHT22;5222;49.324;8.420;2022-09-17T11:38:17;20.30;85.00
10352;DHT22;5222;49.324;8.420;2022-09-17T11:40:49;19.90;85.80
10352;DHT22;5222;49.324;8.420;2022-09-17T11:43:20;19.90;86.90
10352;DHT22;5222;49.324;8.420;2022-09-17T11:45:58;19.90;87.30
10352;DHT22;5222;49.324;8.420;2022-09-17T11:48:30;19.80;87.80
10352;DHT22;5222;49.324;8.420;2022-09-17T11:51:04;20.00;88.10
10352;DHT22;5222;49.324;8.420;2022-09-17T11:53:38;20.40;87.50
10352;DHT22;5222;49.324;8.420;2022-09-17T11:56:14;20.60;86.10
10352;DHT22;5222;49.324;8.420;2022-09-17T11:58:46;20.40;85.70
10352;DHT22;5222;49.324;8.420;2022-09-17T12:01:18;20.30;85.90
10352;DHT22;5222;49.324;8.420;2022-09-17T12:03:51;20.10;86.70
10352;DHT22;5222;49.324;8.420;2022-09-17T12:06:22;20.20;86.70
10352;DHT22;5222;49.324;8.420;2022-09-17T12:08:58;20.20;86.00
10352;DHT22;5222;49.324;8.420;2022-09-17T12:11:33;20.40;86.70
10352;DHT22;5222;49.324;8.420;2022-09-17T12:14:04;20.50;85.70
10352;DHT22;5222;49.324;8.420;2022-09-17T12:16:36;20.80;85.70
10352;DHT22;5222;49.324;8.420;2022-09-17T12:19:09;20.80;84.90
10352;DHT22;5222;49.324;8.420;2022-09-17T12:21:41;20.80;85.20
10352;DHT22;5222;49.324;8.420;2022-09-17T12:24:15;20.60;82.90
10352;DHT22;5222;49.324;8.420;2022-09-17T12:26:51;20.40;82.40
10352;DHT22;5222;49.324;8.420;2022-09-17T12:29:35;20.80;82.90
10352;DHT22;5222;49.324;8.420;2022-09-17T12:32:23;20.90;82.60
10352;DHT22;5222;49.324;8.420;2022-09-17T12:34:57;20.80;82.00
10352;DHT22;5222;49.324;8.420;2022-09-17T12:37:32;21.30;82.10
10352;DHT22;5222;49.324;8.420;2022-09-17T12:40:13;21.40;82.40
10352;DHT22;5222;49.324;8.420;2022-09-17T12:43:01;21.30;82.20
10352;DHT22;5222;49.324;8.420;2022-09-17T12:45:45;21.60;82.80
10352;DHT22;5222;49.324;8.420;2022-09-17T12:48:33;21.40;83.10
10352;DHT22;5222;49.324;8.420;2022-09-17T12:51:11;21.50;82.90
10352;DHT22;5222;49.324;8.420;2022-09-17T12:53:42;21.40;82.90
10352;DHT22;5222;49.324;8.420;2022-09-17T12:56:24;21.10;83.40
10352;DHT22;5222;49.324;8.420;2022-09-17T12:59:04;21.50;83.30
10352;DHT22;5222;49.324;8.420;2022-09-17T13:01:34;21.90;83.00
10352;DHT22;5222;49.324;8.420;2022-09-17T13:04:13;21.90;84.10
10352;DHT22;5222;49.324;8.420;2022-09-17T13:10:08;22.00;83.10
10352;DHT22;5222;49.324;8.420;2022-09-17T13:12:45;22.40;83.20
10352;DHT22;5222;49.324;8.420;2022-09-17T13:15:34;22.40;82.40
10352;DHT22;5222;49.324;8.420;2022-09-17T13:18:07;22.00;82.50
10352;DHT22;5222;49.324;8.420;2022-09-17T13:20:41;21.70;83.80
10352;DHT22;5222;49.324;8.420;2022-09-17T13:23:09;21.50;84.10
10352;DHT22;5222;49.324;8.420;2022-09-17T13:25:48;21.10;84.90
10352;DHT22;5222;49.324;8.420;2022-09-17T13:28:19;21.00;85.90
10352;DHT22;5222;49.324;8.420;2022-09-17T13:30:57;20.90;86.40
10352;DHT22;5222;49.324;8.420;2022-09-17T13:33:53;20.80;86.70
10352;DHT22;5222;49.324;8.420;2022-09-17T13:36:44;20.70;86.90
10352;DHT22;5222;49.324;8.420;2022-09-17T13:39:31;20.60;87.40
10352;DHT22;5222;49.324;8.420;2022-09-17T13:42:02;20.90;85.70
10352;DHT22;5222;49.324;8.420;2022-09-17T13:44:35;21.20;84.20
10352;DHT22;5222;49.324;8.420;2022-09-17T13:47:20;21.30;84.10
10352;DHT22;5222;49.324;8.420;2022-09-17T13:49:51;21.60;84.40
10352;DHT22;5222;49.324;8.420;2022-09-17T13:52:32;21.60;83.30
10352;DHT22;5222;49.324;8.420;2022-09-17T13:55:01;21.70;83.20
10352;DHT22;5222;49.324;8.420;2022-09-17T13:57:29;21.70;82.50
10352;DHT22;5222;49.324;8.420;2022-09-17T14:00:00;21.70;83.60
10352;DHT22;5222;49.324;8.420;2022-09-17T14:02:34;21.50;83.40
10352;DHT22;5222;49.324;8.420;2022-09-17T14:08:22;20.90;83.60
10352;DHT22;5222;49.324;8.420;2022-09-17T14:10:53;20.90;84.40
10352;DHT22;5222;49.324;8.420;2022-09-17T14:13:38;20.80;84.10
10352;DHT22;5222;49.324;8.420;2022-09-17T14:16:43;21.00;84.60
10352;DHT22;5222;49.324;8.420;2022-09-17T14:19:22;21.30;85.20
10352;DHT22;5222;49.324;8.420;2022-09-17T14:21:58;21.50;83.60
10352;DHT22;5222;49.324;8.420;2022-09-17T14:24:29;21.60;83.20
10352;DHT22;5222;49.324;8.420;2022-09-17T14:27:12;21.50;83.30
10352;DHT22;5222;49.324;8.420;2022-09-17T14:29:52;21.60;83.90
10352;DHT22;5222;49.324;8.420;2022-09-17T14:32:26;21.20;83.90
10352;DHT22;5222;49.324;8.420;2022-09-17T14:34:57;21.10;84.50
10352;DHT22;5222;49.324;8.420;2022-09-17T14:37:24;21.50;83.80
10352;DHT22;5222;49.324;8.420;2022-09-17T14:39:51;21.40;83.20
10352;DHT22;5222;49.324;8.420;2022-09-17T14:42:21;21.20;83.00
10352;DHT22;5222;49.324;8.420;2022-09-17T14:44:55;21.30;83.60
10352;DHT22;5222;49.324;8.420;2022-09-17T14:47:25;21.30;83.00
10352;DHT22;5222;49.324;8.420;2022-09-17T14:49:52;21.50;82.30
10352;DHT22;5222;49.324;8.420;2022-09-17T14:52:24;21.50;81.60
10352;DHT22;5222;49.324;8.420;2022-09-17T14:55:13;21.40;81.40
10352;DHT22;5222;49.324;8.420;2022-09-17T14:57:42;21.20;82.00
10352;DHT22;5222;49.324;8.420;2022-09-17T15:00:16;21.10;82.20
10352;DHT22;5222;49.324;8.420;2022-09-17T15:02:50;20.70;82.90
10352;DHT22;5222;49.324;8.420;2022-09-17T15:05:21;20.40;83.70
10352;DHT22;5222;49.324;8.420;2022-09-17T15:07:48;20.50;84.30
10352;DHT22;5222;49.324;8.420;2022-09-17T15:10:18;20.40;84.80
10352;DHT22;5222;49.324;8.420;2022-09-17T15:12:46;20.10;85.80
10352;DHT22;5222;49.324;8.420;2022-09-17T15:15:18;20.00;86.20
10352;DHT22;5222;49.324;8.420;2022-09-17T15:17:49;19.90;86.70
10352;DHT22;5222;49.324;8.420;2022-09-17T15:20:19;19.70;87.30
10352;DHT22;5222;49.324;8.420;2022-09-17T15:22:51;19.40;88.40
10352;DHT22;5222;49.324;8.420;2022-09-17T15:25:22;19.40;90.00
10352;DHT22;5222;49.324;8.420;2022-09-17T15:27:52;19.40;90.60
10352;DHT22;5222;49.324;8.420;2022-09-17T15:30:22;19.00;89.30
10352;DHT22;5222;49.324;8.420;2022-09-17T15:32:52;18.90;89.90
10352;DHT22;5222;49.324;8.420;2022-09-17T15:35:23;19.00;90.20
10352;DHT22;5222;49.324;8.420;2022-09-17T15:37:55;18.90;90.40
10352;DHT22;5222;49.324;8.420;2022-09-17T15:40:25;18.50;89.70
10352;DHT22;5222;49.324;8.420;2022-09-17T15:43:00;18.40;90.00
10352;DHT22;5222;49.324;8.420;2022-09-17T15:45:28;18.40;90.30
10352;DHT22;5222;49.324;8.420;2022-09-17T15:47:57;18.20;89.90
10352;DHT22;5222;49.324;8.420;2022-09-17T15:50:25;18.30;90.20
10352;DHT22;5222;49.324;8.420;2022-09-17T15:53:10;18.30;90.60
10352;DHT22;5222;49.324;8.420;2022-09-17T15:55:39;18.40;90.50
10352;DHT22;5222;49.324;8.420;2022-09-17T15:58:21;18.30;91.20
10352;DHT22;5222;49.324;8.420;2022-09-17T16:01:05;18.20;91.30
10352;DHT22;5222;49.324;8.420;2022-09-17T16:04:21;18.20;92.00
10352;DHT22;5222;49.324;8.420;2022-09-17T16:06:59;18.10;92.60
10352;DHT22;5222;49.324;8.420;2022-09-17T16:09:41;18.10;92.50
10352;DHT22;5222;49.324;8.420;2022-09-17T16:12:11;17.90;93.20
10352;DHT22;5222;49.324;8.420;2022-09-17T16:14:47;18.00;93.60
10352;DHT22;5222;49.324;8.420;2022-09-17T16:17:23;18.00;93.90
10352;DHT22;5222;49.324;8.420;2022-09-17T16:19:54;17.80;94.20
10352;DHT22;5222;49.324;8.420;2022-09-17T16:22:21;17.80;94.20
10352;DHT22;5222;49.324;8.420;2022-09-17T16:24:48;17.90;94.20
10352;DHT22;5222;49.324;8.420;2022-09-17T16:27:18;18.00;94.10
10352;DHT22;5222;49.324;8.420;2022-09-17T16:29:47;18.20;94.20